sensor_id;sensor_type;location;lat;lon;timestamp;temperature;humidity
22966;DHT22;11649;48.090;9.754;2022-07-17T00:02:21;15.80;79.50
22966;DHT22;11649;48.090;9.754;2022-07-17T00:04:49;15.70;77.70
22966;DHT22;11649;48.090;9.754;2022-07-17T00:07:15;16.30;77.10
22966;DHT22;11649;48.090;9.754;2022-07-17T00:09:42;16.10;77.30
22966;DHT22;11649;48.090;9.754;2022-07-17T00:12:09;16.30;78.40
22966;DHT22;11649;48.090;9.754;2022-07-17T00:14:36;16.60;77.30
22966;DHT22;11649;48.090;9.754;2022-07-17T00:17:03;16.20;76.20
22966;DHT22;11649;48.090;9.754;2022-07-17T00:19:32;15.90;77.10
22966;DHT22;11649;48.090;9.754;2022-07-17T00:21:59;15.70;77.80
22966;DHT22;11649;48.090;9.754;2022-07-17T00:24:26;16.00;78.40
22966;DHT22;11649;48.090;9.754;2022-07-17T00:26:53;16.00;77.50
22966;DHT22;11649;48.090;9.754;2022-07-17T00:29:20;15.90;77.90
22966;DHT22;11649;48.090;9.754;2022-07-17T00:31:47;15.80;76.90
22966;DHT22;11649;48.090;9.754;2022-07-17T00:34:14;16.00;78.20
22966;DHT22;11649;48.090;9.754;2022-07-17T00:36:41;16.00;78.50
22966;DHT22;11649;48.090;9.754;2022-07-17T00:39:08;16.10;78.80
22966;DHT22;11649;48.090;9.754;2022-07-17T00:41:47;16.00;79.60
22966;DHT22;11649;48.090;9.754;2022-07-17T00:44:14;15.70;78.60
22966;DHT22;11649;48.090;9.754;2022-07-17T00:46:41;15.70;79.10
22966;DHT22;11649;48.090;9.754;2022-07-17T00:49:09;15.50;79.60
22966;DHT22;11649;48.090;9.754;2022-07-17T00:51:36;15.10;80.10
22966;DHT22;11649;48.090;9.754;2022-07-17T00:54:03;15.30;80.00
22966;DHT22;11649;48.090;9.754;2022-07-17T00:56:36;15.40;79.60
22966;DHT22;11649;48.090;9.754;2022-07-17T00:59:03;15.80;79.70
22966;DHT22;11649;48.090;9.754;2022-07-17T01:01:32;15.60;79.10
22966;DHT22;11649;48.090;9.754;2022-07-17T01:03:59;16.10;77.90
22966;DHT22;11649;48.090;9.754;2022-07-17T01:06:26;15.60;77.40
22966;DHT22;11649;48.090;9.754;2022-07-17T01:08:53;15.80;78.20
22966;DHT22;11649;48.090;9.754;2022-07-17T01:11:20;15.70;77.70
22966;DHT22;11649;48.090;9.754;2022-07-17T01:13:47;15.90;79.00
22966;DHT22;11649;48.090;9.754;2022-07-17T01:16:15;15.20;79.40
22966;DHT22;11649;48.090;9.754;2022-07-17T01:18:42;15.60;80.70
22966;DHT22;11649;48.090;9.754;2022-07-17T01:21:09;15.40;80.90
22966;DHT22;11649;48.090;9.754;2022-07-17T01:23:36;15.30;81.30
22966;DHT22;11649;48.090;9.754;2022-07-17T01:26:03;15.30;80.90
22966;DHT22;11649;48.090;9.754;2022-07-17T01:28:30;15.10;81.60
22966;DHT22;11649;48.090;9.754;2022-07-17T01:30:57;15.20;81.00
22966;DHT22;11649;48.090;9.754;2022-07-17T01:33:26;14.90;81.70
22966;DHT22;11649;48.090;9.754;2022-07-17T01:35:53;15.10;82.80
22966;DHT22;11649;48.090;9.754;2022-07-17T01:38:20;14.50;83.10
22966;DHT22;11649;48.090;9.754;2022-07-17T01:40:47;14.50;83.60
22966;DHT22;11649;48.090;9.754;2022-07-17T01:43:14;14.60;83.20
22966;DHT22;11649;48.090;9.754;2022-07-17T01:45:41;14.50;82.80
22966;DHT22;11649;48.090;9.754;2022-07-17T01:48:08;14.60;82.60
22966;DHT22;11649;48.090;9.754;2022-07-17T01:50:35;15.00;82.50
22966;DHT22;11649;48.090;9.754;2022-07-17T01:53:02;14.60;83.10
22966;DHT22;11649;48.090;9.754;2022-07-17T01:55:29;14.70;83.90
22966;DHT22;11649;48.090;9.754;2022-07-17T01:57:56;14.40;85.00
22966;DHT22;11649;48.090;9.754;2022-07-17T02:00:23;14.20;85.30
22966;DHT22;11649;48.090;9.754;2022-07-17T02:02:52;14.20;86.20
22966;DHT22;11649;48.090;9.754;2022-07-17T02:05:19;14.30;85.80
22966;DHT22;11649;48.090;9.754;2022-07-17T02:07:46;15.00;86.30
22966;DHT22;11649;48.090;9.754;2022-07-17T02:10:13;14.50;85.00
22966;DHT22;11649;48.090;9.754;2022-07-17T02:12:42;14.40;84.20
22966;DHT22;11649;48.090;9.754;2022-07-17T02:15:10;14.40;84.60
22966;DHT22;11649;48.090;9.754;2022-07-17T02:17:38;14.40;84.90
22966;DHT22;11649;48.090;9.754;2022-07-17T02:20:06;14.30;85.70
22966;DHT22;11649;48.090;9.754;2022-07-17T02:22:34;14.30;85.20
22966;DHT22;11649;48.090;9.754;2022-07-17T02:25:05;14.90;84.60
22966;DHT22;11649;48.090;9.754;2022-07-17T02:27:32;14.50;83.40
22966;DHT22;11649;48.090;9.754;2022-07-17T02:30:04;14.50;83.20
22966;DHT22;11649;48.090;9.754;2022-07-17T02:32:31;14.60;82.60
22966;DHT22;11649;48.090;9.754;2022-07-17T02:34:58;14.50;82.90
22966;DHT22;11649;48.090;9.754;2022-07-17T02:37:25;14.40;84.10
22966;DHT22;11649;48.090;9.754;2022-07-17T02:39:51;14.30;84.10
22966;DHT22;11649;48.090;9.754;2022-07-17T02:42:28;14.20;85.10
22966;DHT22;11649;48.090;9.754;2022-07-17T02:44:55;13.90;86.20
22966;DHT22;11649;48.090;9.754;2022-07-17T02:47:29;13.60;88.20
22966;DHT22;11649;48.090;9.754;2022-07-17T02:49:58;13.80;88.90
22966;DHT22;11649;48.090;9.754;2022-07-17T02:52:27;13.80;87.70
22966;DHT22;11649;48.090;9.754;2022-07-17T02:54:54;14.20;87.20
22966;DHT22;11649;48.090;9.754;2022-07-17T02:57:21;14.60;86.90
22966;DHT22;11649;48.090;9.754;2022-07-17T02:59:48;14.00;86.20
22966;DHT22;11649;48.090;9.754;2022-07-17T03:02:15;14.00;85.90
22966;DHT22;11649;48.090;9.754;2022-07-17T03:04:41;14.00;85.90
22966;DHT22;11649;48.090;9.754;2022-07-17T03:07:08;14.10;87.40
22966;DHT22;11649;48.090;9.754;2022-07-17T03:09:35;13.70;87.30
22966;DHT22;11649;48.090;9.754;2022-07-17T03:12:02;14.30;88.30
22966;DHT22;11649;48.090;9.754;2022-07-17T03:14:29;13.90;88.40
22966;DHT22;11649;48.090;9.754;2022-07-17T03:16:55;13.90;88.30
22966;DHT22;11649;48.090;9.754;2022-07-17T03:19:23;14.00;87.40
22966;DHT22;11649;48.090;9.754;2022-07-17T03:21:49;14.40;88.00
22966;DHT22;11649;48.090;9.754;2022-07-17T03:24:16;14.50;88.00
22966;DHT22;11649;48.090;9.754;2022-07-17T03:26:43;13.50;88.80
22966;DHT22;11649;48.090;9.754;2022-07-17T03:29:10;13.60;88.30
22966;DHT22;11649;48.090;9.754;2022-07-17T03:31:39;14.10;88.70
22966;DHT22;11649;48.090;9.754;2022-07-17T03:34:06;13.60;89.00
22966;DHT22;11649;48.090;9.754;2022-07-17T03:36:33;13.70;89.00
22966;DHT22;11649;48.090;9.754;2022-07-17T03:39:00;13.80;88.40
22966;DHT22;11649;48.090;9.754;2022-07-17T03:41:31;13.70;87.70
22966;DHT22;11649;48.090;9.754;2022-07-17T03:43:57;14.30;87.70
22966;DHT22;11649;48.090;9.754;2022-07-17T03:46:24;14.30;87.50
22966;DHT22;11649;48.090;9.754;2022-07-17T03:48:51;14.60;87.30
22966;DHT22;11649;48.090;9.754;2022-07-17T03:51:19;14.90;87.60
22966;DHT22;11649;48.090;9.754;2022-07-17T03:53:46;14.40;87.40
22966;DHT22;11649;48.090;9.754;2022-07-17T03:56:12;14.50;87.40
22966;DHT22;11649;48.090;9.754;2022-07-17T03:58:40;13.90;86.90
22966;DHT22;11649;48.090;9.754;2022-07-17T04:01:07;13.90;86.80
22966;DHT22;11649;48.090;9.754;2022-07-17T04:03:34;13.80;88.30
22966;DHT22;11649;48.090;9.754;2022-07-17T04:06:01;13.50;89.40
22966;DHT22;11649;48.090;9.754;2022-07-17T04:08:28;14.00;90.20
22966;DHT22;11649;48.090;9.754;2022-07-17T04:10:55;13.40;90.40
22966;DHT22;11649;48.090;9.754;2022-07-17T04:13:21;13.60;90.20
22966;DHT22;11649;48.090;9.754;2022-07-17T04:15:49;13.80;90.00
22966;DHT22;11649;48.090;9.754;2022-07-17T04:18:16;14.10;89.90
22966;DHT22;11649;48.090;9.754;2022-07-17T04:20:44;13.90;89.70
22966;DHT22;11649;48.090;9.754;2022-07-17T04:23:11;14.00;89.40
22966;DHT22;11649;48.090;9.754;2022-07-17T04:25:38;14.10;89.90
22966;DHT22;11649;48.090;9.754;2022-07-17T04:28:04;14.10;89.50
22966;DHT22;11649;48.090;9.754;2022-07-17T04:30:32;14.10;89.80
22966;DHT22;11649;48.090;9.754;2022-07-17T04:32:59;14.80;88.80
22966;DHT22;11649;48.090;9.754;2022-07-17T04:35:26;14.60;89.80
22966;DHT22;11649;48.090;9.754;2022-07-17T04:37:53;14.50;90.40
22966;DHT22;11649;48.090;9.754;2022-07-17T04:40:21;15.00;90.80
22966;DHT22;11649;48.090;9.754;2022-07-17T04:42:48;14.50;90.60
22966;DHT22;11649;48.090;9.754;2022-07-17T04:45:14;14.80;91.00
22966;DHT22;11649;48.090;9.754;2022-07-17T04:47:41;14.80;90.70
22966;DHT22;11649;48.090;9.754;2022-07-17T04:50:09;14.90;90.50
22966;DHT22;11649;48.090;9.754;2022-07-17T04:52:36;15.70;90.30
22966;DHT22;11649;48.090;9.754;2022-07-17T04:55:03;15.00;89.50
22966;DHT22;11649;48.090;9.754;2022-07-17T04:57:31;15.20;87.80
22966;DHT22;11649;48.090;9.754;2022-07-17T04:59:58;15.30;86.60
22966;DHT22;11649;48.090;9.754;2022-07-17T05:02:24;15.70;87.00
22966;DHT22;11649;48.090;9.754;2022-07-17T05:04:51;16.30;87.90
22966;DHT22;11649;48.090;9.754;2022-07-17T05:07:18;15.50;87.40
22966;DHT22;11649;48.090;9.754;2022-07-17T05:09:45;16.30;87.60
22966;DHT22;11649;48.090;9.754;2022-07-17T05:12:12;16.20;85.20
22966;DHT22;11649;48.090;9.754;2022-07-17T05:14:38;15.80;83.80
22966;DHT22;11649;48.090;9.754;2022-07-17T05:17:06;16.10;84.70
22966;DHT22;11649;48.090;9.754;2022-07-17T05:19:33;16.10;83.90
22966;DHT22;11649;48.090;9.754;2022-07-17T05:21:59;16.20;83.80
22966;DHT22;11649;48.090;9.754;2022-07-17T05:24:26;16.70;82.60
22966;DHT22;11649;48.090;9.754;2022-07-17T05:26:54;16.40;82.10
22966;DHT22;11649;48.090;9.754;2022-07-17T05:29:21;16.50;82.40
22966;DHT22;11649;48.090;9.754;2022-07-17T05:31:48;16.90;81.60
22966;DHT22;11649;48.090;9.754;2022-07-17T05:34:15;16.30;81.00
22966;DHT22;11649;48.090;9.754;2022-07-17T05:36:41;17.00;80.40
22966;DHT22;11649;48.090;9.754;2022-07-17T05:39:08;16.70;79.00
22966;DHT22;11649;48.090;9.754;2022-07-17T05:41:35;16.20;78.40
22966;DHT22;11649;48.090;9.754;2022-07-17T05:44:02;16.80;78.80
22966;DHT22;11649;48.090;9.754;2022-07-17T05:46:29;16.40;77.90
22966;DHT22;11649;48.090;9.754;2022-07-17T05:48:56;16.50;79.00
22966;DHT22;11649;48.090;9.754;2022-07-17T05:51:23;17.30;79.40
22966;DHT22;11649;48.090;9.754;2022-07-17T05:53:52;17.20;77.70
22966;DHT22;11649;48.090;9.754;2022-07-17T05:56:19;16.80;77.10
22966;DHT22;11649;48.090;9.754;2022-07-17T05:58:46;17.00;76.70
22966;DHT22;11649;48.090;9.754;2022-07-17T06:01:13;17.20;74.90
22966;DHT22;11649;48.090;9.754;2022-07-17T06:03:40;17.30;76.00
22966;DHT22;11649;48.090;9.754;2022-07-17T06:06:06;17.30;75.40
22966;DHT22;11649;48.090;9.754;2022-07-17T06:08:33;17.60;73.50
22966;DHT22;11649;48.090;9.754;2022-07-17T06:11:00;17.50;73.30
22966;DHT22;11649;48.090;9.754;2022-07-17T06:13:27;17.70;72.50
22966;DHT22;11649;48.090;9.754;2022-07-17T06:15:54;17.90;68.30
22966;DHT22;11649;48.090;9.754;2022-07-17T06:18:24;18.00;72.50
22966;DHT22;11649;48.090;9.754;2022-07-17T06:20:52;18.40;75.10
22966;DHT22;11649;48.090;9.754;2022-07-17T06:23:19;17.90;71.00
22966;DHT22;11649;48.090;9.754;2022-07-17T06:25:45;18.10;70.90
22966;DHT22;11649;48.090;9.754;2022-07-17T06:28:12;18.40;71.60
22966;DHT22;11649;48.090;9.754;2022-07-17T06:30:39;18.20;69.40
22966;DHT22;11649;48.090;9.754;2022-07-17T06:33:06;18.40;69.20
22966;DHT22;11649;48.090;9.754;2022-07-17T06:35:33;18.70;69.20
22966;DHT22;11649;48.090;9.754;2022-07-17T06:38:02;18.60;67.20
22966;DHT22;11649;48.090;9.754;2022-07-17T06:40:29;18.60;66.90
22966;DHT22;11649;48.090;9.754;2022-07-17T06:42:56;18.70;66.80
22966;DHT22;11649;48.090;9.754;2022-07-17T06:45:23;18.80;66.10
22966;DHT22;11649;48.090;9.754;2022-07-17T06:47:50;18.80;66.00
22966;DHT22;11649;48.090;9.754;2022-07-17T06:50:17;19.00;65.60
22966;DHT22;11649;48.090;9.754;2022-07-17T06:52:44;19.10;66.10
22966;DHT22;11649;48.090;9.754;2022-07-17T06:55:12;19.20;66.60
22966;DHT22;11649;48.090;9.754;2022-07-17T06:57:39;19.30;67.30
22966;DHT22;11649;48.090;9.754;2022-07-17T07:00:07;20.10;66.20
22966;DHT22;11649;48.090;9.754;2022-07-17T07:02:35;19.30;64.60
22966;DHT22;11649;48.090;9.754;2022-07-17T07:05:02;19.30;64.30
22966;DHT22;11649;48.090;9.754;2022-07-17T07:07:30;19.40;63.70
22966;DHT22;11649;48.090;9.754;2022-07-17T07:09:57;19.40;64.90
22966;DHT22;11649;48.090;9.754;2022-07-17T07:12:23;19.60;64.80
22966;DHT22;11649;48.090;9.754;2022-07-17T07:14:50;19.90;65.30
22966;DHT22;11649;48.090;9.754;2022-07-17T07:17:17;20.00;64.30
22966;DHT22;11649;48.090;9.754;2022-07-17T07:19:44;20.00;63.90
22966;DHT22;11649;48.090;9.754;2022-07-17T07:22:10;19.90;63.50
22966;DHT22;11649;48.090;9.754;2022-07-17T07:24:37;20.40;63.70
22966;DHT22;11649;48.090;9.754;2022-07-17T07:27:04;20.10;62.50
22966;DHT22;11649;48.090;9.754;2022-07-17T07:29:31;20.70;61.90
22966;DHT22;11649;48.090;9.754;2022-07-17T07:31:57;20.30;63.20
22966;DHT22;11649;48.090;9.754;2022-07-17T07:34:24;20.50;63.90
22966;DHT22;11649;48.090;9.754;2022-07-17T07:36:51;20.50;64.00
22966;DHT22;11649;48.090;9.754;2022-07-17T07:39:18;20.50;64.20
22966;DHT22;11649;48.090;9.754;2022-07-17T07:41:45;20.70;64.70
22966;DHT22;11649;48.090;9.754;2022-07-17T07:44:12;20.70;62.90
22966;DHT22;11649;48.090;9.754;2022-07-17T07:46:49;20.90;62.90
22966;DHT22;11649;48.090;9.754;2022-07-17T07:49:16;21.30;62.90
22966;DHT22;11649;48.090;9.754;2022-07-17T07:51:43;21.10;62.60
22966;DHT22;11649;48.090;9.754;2022-07-17T07:54:28;21.00;63.80
22966;DHT22;11649;48.090;9.754;2022-07-17T07:56:55;21.10;64.20
22966;DHT22;11649;48.090;9.754;2022-07-17T07:59:22;21.50;64.30
22966;DHT22;11649;48.090;9.754;2022-07-17T08:01:49;21.60;64.40
22966;DHT22;11649;48.090;9.754;2022-07-17T08:04:16;21.50;65.70
22966;DHT22;11649;48.090;9.754;2022-07-17T08:06:43;21.50;65.90
22966;DHT22;11649;48.090;9.754;2022-07-17T08:09:09;21.90;70.00
22966;DHT22;11649;48.090;9.754;2022-07-17T08:11:36;21.70;64.10
22966;DHT22;11649;48.090;9.754;2022-07-17T08:14:03;21.90;67.00
22966;DHT22;11649;48.090;9.754;2022-07-17T08:16:42;21.70;63.30
22966;DHT22;11649;48.090;9.754;2022-07-17T08:19:08;21.80;62.10
22966;DHT22;11649;48.090;9.754;2022-07-17T08:21:35;21.80;63.20
22966;DHT22;11649;48.090;9.754;2022-07-17T08:24:02;21.80;60.80
22966;DHT22;11649;48.090;9.754;2022-07-17T08:26:29;21.80;61.40
22966;DHT22;11649;48.090;9.754;2022-07-17T08:28:56;22.00;60.10
22966;DHT22;11649;48.090;9.754;2022-07-17T08:31:23;22.00;58.70
22966;DHT22;11649;48.090;9.754;2022-07-17T08:33:50;22.20;58.60
22966;DHT22;11649;48.090;9.754;2022-07-17T08:36:17;22.10;57.30
22966;DHT22;11649;48.090;9.754;2022-07-17T08:38:43;22.20;57.90
22966;DHT22;11649;48.090;9.754;2022-07-17T08:41:10;22.30;56.70
22966;DHT22;11649;48.090;9.754;2022-07-17T08:43:42;22.40;55.10
22966;DHT22;11649;48.090;9.754;2022-07-17T08:46:12;22.50;55.50
22966;DHT22;11649;48.090;9.754;2022-07-17T08:48:41;22.50;55.60
22966;DHT22;11649;48.090;9.754;2022-07-17T08:51:09;22.70;52.20
22966;DHT22;11649;48.090;9.754;2022-07-17T08:53:37;22.80;53.20
22966;DHT22;11649;48.090;9.754;2022-07-17T08:56:04;22.70;51.90
22966;DHT22;11649;48.090;9.754;2022-07-17T08:58:31;22.70;53.30
22966;DHT22;11649;48.090;9.754;2022-07-17T09:00:58;22.80;52.90
22966;DHT22;11649;48.090;9.754;2022-07-17T09:03:25;23.00;52.60
22966;DHT22;11649;48.090;9.754;2022-07-17T09:05:52;23.00;51.40
22966;DHT22;11649;48.090;9.754;2022-07-17T09:08:21;23.10;51.30
22966;DHT22;11649;48.090;9.754;2022-07-17T09:10:53;23.10;48.40
22966;DHT22;11649;48.090;9.754;2022-07-17T09:13:30;23.50;51.10
22966;DHT22;11649;48.090;9.754;2022-07-17T09:16:05;23.20;49.10
22966;DHT22;11649;48.090;9.754;2022-07-17T09:18:50;23.40;48.50
22966;DHT22;11649;48.090;9.754;2022-07-17T09:21:22;23.50;48.50
22966;DHT22;11649;48.090;9.754;2022-07-17T09:24:06;23.50;47.90
22966;DHT22;11649;48.090;9.754;2022-07-17T09:26:34;23.40;48.50
22966;DHT22;11649;48.090;9.754;2022-07-17T09:29:02;23.50;47.10
22966;DHT22;11649;48.090;9.754;2022-07-17T09:31:31;23.50;47.00
22966;DHT22;11649;48.090;9.754;2022-07-17T09:33:59;23.90;48.40
22966;DHT22;11649;48.090;9.754;2022-07-17T09:36:26;23.70;47.10
22966;DHT22;11649;48.090;9.754;2022-07-17T09:38:55;23.70;46.20
22966;DHT22;11649;48.090;9.754;2022-07-17T09:41:24;23.80;47.70
22966;DHT22;11649;48.090;9.754;2022-07-17T09:43:55;23.70;47.10
22966;DHT22;11649;48.090;9.754;2022-07-17T09:46:32;23.70;46.40
22966;DHT22;11649;48.090;9.754;2022-07-17T09:49:05;23.80;46.80
22966;DHT22;11649;48.090;9.754;2022-07-17T09:51:38;23.80;45.70
22966;DHT22;11649;48.090;9.754;2022-07-17T09:54:07;23.90;47.00
22966;DHT22;11649;48.090;9.754;2022-07-17T09:56:36;23.90;46.60
22966;DHT22;11649;48.090;9.754;2022-07-17T09:59:08;24.00;46.00
22966;DHT22;11649;48.090;9.754;2022-07-17T10:01:36;24.10;45.20
22966;DHT22;11649;48.090;9.754;2022-07-17T10:04:05;24.10;43.70
22966;DHT22;11649;48.090;9.754;2022-07-17T10:06:32;24.10;44.10
22966;DHT22;11649;48.090;9.754;2022-07-17T10:09:00;24.10;46.00
22966;DHT22;11649;48.090;9.754;2022-07-17T10:11:30;24.20;46.10
22966;DHT22;11649;48.090;9.754;2022-07-17T10:14:02;24.20;46.30
22966;DHT22;11649;48.090;9.754;2022-07-17T10:16:33;24.10;43.40
22966;DHT22;11649;48.090;9.754;2022-07-17T10:19:01;24.20;42.20
22966;DHT22;11649;48.090;9.754;2022-07-17T10:21:52;24.20;44.60
22966;DHT22;11649;48.090;9.754;2022-07-17T10:24:20;24.30;43.00
22966;DHT22;11649;48.090;9.754;2022-07-17T10:26:47;24.30;44.80
22966;DHT22;11649;48.090;9.754;2022-07-17T10:29:37;24.40;45.10
22966;DHT22;11649;48.090;9.754;2022-07-17T10:32:16;24.40;45.20
22966;DHT22;11649;48.090;9.754;2022-07-17T10:34:52;24.70;45.10
22966;DHT22;11649;48.090;9.754;2022-07-17T10:37:27;24.50;45.10
22966;DHT22;11649;48.090;9.754;2022-07-17T10:40:19;24.70;44.40
22966;DHT22;11649;48.090;9.754;2022-07-17T10:42:47;24.80;45.00
22966;DHT22;11649;48.090;9.754;2022-07-17T10:45:34;24.90;40.70
22966;DHT22;11649;48.090;9.754;2022-07-17T10:48:09;24.80;39.20
22966;DHT22;11649;48.090;9.754;2022-07-17T10:50:54;24.70;40.30
22966;DHT22;11649;48.090;9.754;2022-07-17T10:53:30;24.80;42.00
22966;DHT22;11649;48.090;9.754;2022-07-17T10:58:38;24.80;42.20
22966;DHT22;11649;48.090;9.754;2022-07-17T11:01:21;24.80;41.80
22966;DHT22;11649;48.090;9.754;2022-07-17T11:03:54;24.90;42.30
22966;DHT22;11649;48.090;9.754;2022-07-17T11:06:29;24.90;41.80
22966;DHT22;11649;48.090;9.754;2022-07-17T11:14:24;24.80;41.60
22966;DHT22;11649;48.090;9.754;2022-07-17T11:16:57;24.90;39.20
22966;DHT22;11649;48.090;9.754;2022-07-17T11:19:35;24.90;39.40
22966;DHT22;11649;48.090;9.754;2022-07-17T11:22:09;24.90;41.00
22966;DHT22;11649;48.090;9.754;2022-07-17T11:24:40;25.10;39.20
22966;DHT22;11649;48.090;9.754;2022-07-17T11:27:29;25.10;42.40
22966;DHT22;11649;48.090;9.754;2022-07-17T11:29:58;25.20;41.30
22966;DHT22;11649;48.090;9.754;2022-07-17T11:32:35;25.40;40.70
22966;DHT22;11649;48.090;9.754;2022-07-17T11:35:20;25.40;39.50
22966;DHT22;11649;48.090;9.754;2022-07-17T11:38:07;25.50;39.70
22966;DHT22;11649;48.090;9.754;2022-07-17T11:40:34;25.60;40.30
22966;DHT22;11649;48.090;9.754;2022-07-17T11:43:02;25.80;41.30
22966;DHT22;11649;48.090;9.754;2022-07-17T11:45:31;25.90;37.10
22966;DHT22;11649;48.090;9.754;2022-07-17T11:48:02;25.80;39.20
22966;DHT22;11649;48.090;9.754;2022-07-17T11:50:29;25.60;36.40
22966;DHT22;11649;48.090;9.754;2022-07-17T11:53:01;25.70;39.40
22966;DHT22;11649;48.090;9.754;2022-07-17T11:55:39;25.90;38.50
22966;DHT22;11649;48.090;9.754;2022-07-17T11:58:06;26.00;40.10
22966;DHT22;11649;48.090;9.754;2022-07-17T12:00:33;26.00;39.80
22966;DHT22;11649;48.090;9.754;2022-07-17T12:03:02;26.10;39.20
22966;DHT22;11649;48.090;9.754;2022-07-17T12:05:31;26.10;36.90
22966;DHT22;11649;48.090;9.754;2022-07-17T12:07:58;26.00;36.80
22966;DHT22;11649;48.090;9.754;2022-07-17T12:10:28;26.20;37.80
22966;DHT22;11649;48.090;9.754;2022-07-17T12:13:00;26.20;34.60
22966;DHT22;11649;48.090;9.754;2022-07-17T12:15:45;26.10;37.80
22966;DHT22;11649;48.090;9.754;2022-07-17T12:18:19;26.10;36.20
22966;DHT22;11649;48.090;9.754;2022-07-17T12:20:49;26.10;35.70
22966;DHT22;11649;48.090;9.754;2022-07-17T12:23:37;26.10;35.70
22966;DHT22;11649;48.090;9.754;2022-07-17T12:26:14;26.10;35.90
22966;DHT22;11649;48.090;9.754;2022-07-17T12:28:50;26.10;36.60
22966;DHT22;11649;48.090;9.754;2022-07-17T12:31:17;26.10;35.80
22966;DHT22;11649;48.090;9.754;2022-07-17T12:33:44;26.10;35.10
22966;DHT22;11649;48.090;9.754;2022-07-17T12:36:11;26.20;37.40
22966;DHT22;11649;48.090;9.754;2022-07-17T12:38:38;26.40;36.10
22966;DHT22;11649;48.090;9.754;2022-07-17T12:41:05;26.60;36.90
22966;DHT22;11649;48.090;9.754;2022-07-17T12:43:31;26.80;35.30
22966;DHT22;11649;48.090;9.754;2022-07-17T12:45:59;26.70;35.90
22966;DHT22;11649;48.090;9.754;2022-07-17T12:48:34;26.70;35.90
22966;DHT22;11649;48.090;9.754;2022-07-17T12:51:02;26.70;35.70
22966;DHT22;11649;48.090;9.754;2022-07-17T12:53:30;26.80;35.40
22966;DHT22;11649;48.090;9.754;2022-07-17T12:55:56;27.00;35.50
22966;DHT22;11649;48.090;9.754;2022-07-17T12:58:23;27.20;36.10
22966;DHT22;11649;48.090;9.754;2022-07-17T13:00:50;27.20;35.20
22966;DHT22;11649;48.090;9.754;2022-07-17T13:03:17;27.40;36.70
22966;DHT22;11649;48.090;9.754;2022-07-17T13:05:44;27.90;36.20
22966;DHT22;11649;48.090;9.754;2022-07-17T13:08:11;28.20;34.80
22966;DHT22;11649;48.090;9.754;2022-07-17T13:10:37;28.10;34.40
22966;DHT22;11649;48.090;9.754;2022-07-17T13:13:05;28.40;35.40
22966;DHT22;11649;48.090;9.754;2022-07-17T13:15:32;28.70;35.00
22966;DHT22;11649;48.090;9.754;2022-07-17T13:17:59;29.10;33.00
22966;DHT22;11649;48.090;9.754;2022-07-17T13:20:28;29.60;31.40
22966;DHT22;11649;48.090;9.754;2022-07-17T13:22:55;30.30;30.10
22966;DHT22;11649;48.090;9.754;2022-07-17T13:25:23;30.00;29.30
22966;DHT22;11649;48.090;9.754;2022-07-17T13:27:50;30.10;29.20
22966;DHT22;11649;48.090;9.754;2022-07-17T13:30:17;30.30;29.60
22966;DHT22;11649;48.090;9.754;2022-07-17T13:32:44;31.30;28.80
22966;DHT22;11649;48.090;9.754;2022-07-17T13:35:10;31.80;27.40
22966;DHT22;11649;48.090;9.754;2022-07-17T13:37:37;32.10;27.90
22966;DHT22;11649;48.090;9.754;2022-07-17T13:40:05;32.70;26.70
22966;DHT22;11649;48.090;9.754;2022-07-17T13:42:32;33.60;27.20
22966;DHT22;11649;48.090;9.754;2022-07-17T13:44:59;33.20;28.00
22966;DHT22;11649;48.090;9.754;2022-07-17T13:47:26;33.00;28.90
22966;DHT22;11649;48.090;9.754;2022-07-17T13:49:53;33.10;27.70
22966;DHT22;11649;48.090;9.754;2022-07-17T13:52:20;33.30;28.50
22966;DHT22;11649;48.090;9.754;2022-07-17T13:54:47;33.20;28.90
22966;DHT22;11649;48.090;9.754;2022-07-17T13:57:14;33.40;29.30
22966;DHT22;11649;48.090;9.754;2022-07-17T13:59:41;33.60;28.80
22966;DHT22;11649;48.090;9.754;2022-07-17T14:02:08;34.90;27.60
22966;DHT22;11649;48.090;9.754;2022-07-17T14:04:35;36.10;27.20
22966;DHT22;11649;48.090;9.754;2022-07-17T14:07:02;37.20;28.00
22966;DHT22;11649;48.090;9.754;2022-07-17T14:09:29;37.30;26.30
22966;DHT22;11649;48.090;9.754;2022-07-17T14:11:55;38.00;25.20
22966;DHT22;11649;48.090;9.754;2022-07-17T14:14:22;38.70;23.50
22966;DHT22;11649;48.090;9.754;2022-07-17T14:16:49;38.50;24.10
22966;DHT22;11649;48.090;9.754;2022-07-17T14:19:16;38.60;22.20
22966;DHT22;11649;48.090;9.754;2022-07-17T14:21:43;38.50;23.50
22966;DHT22;11649;48.090;9.754;2022-07-17T14:24:11;38.30;23.10
22966;DHT22;11649;48.090;9.754;2022-07-17T14:26:37;38.10;23.80
22966;DHT22;11649;48.090;9.754;2022-07-17T14:29:05;37.70;25.00
22966;DHT22;11649;48.090;9.754;2022-07-17T14:31:32;37.10;24.90
22966;DHT22;11649;48.090;9.754;2022-07-17T14:34:09;36.50;25.10
22966;DHT22;11649;48.090;9.754;2022-07-17T14:36:36;36.40;26.00
22966;DHT22;11649;48.090;9.754;2022-07-17T14:39:03;36.70;28.90
22966;DHT22;11649;48.090;9.754;2022-07-17T14:41:30;37.20;25.90
22966;DHT22;11649;48.090;9.754;2022-07-17T14:43:58;37.20;25.10
22966;DHT22;11649;48.090;9.754;2022-07-17T14:46:26;37.50;26.50
22966;DHT22;11649;48.090;9.754;2022-07-17T14:48:53;37.80;25.30
22966;DHT22;11649;48.090;9.754;2022-07-17T14:51:20;37.70;23.60
22966;DHT22;11649;48.090;9.754;2022-07-17T14:53:47;38.30;24.50
22966;DHT22;11649;48.090;9.754;2022-07-17T14:56:14;39.00;23.10
22966;DHT22;11649;48.090;9.754;2022-07-17T14:58:41;39.50;23.50
22966;DHT22;11649;48.090;9.754;2022-07-17T15:01:07;39.60;23.80
22966;DHT22;11649;48.090;9.754;2022-07-17T15:03:34;40.10;22.60
22966;DHT22;11649;48.090;9.754;2022-07-17T15:06:01;39.90;21.50
22966;DHT22;11649;48.090;9.754;2022-07-17T15:08:28;39.50;22.10
22966;DHT22;11649;48.090;9.754;2022-07-17T15:10:58;39.30;23.80
22966;DHT22;11649;48.090;9.754;2022-07-17T15:13:25;39.30;23.90
22966;DHT22;11649;48.090;9.754;2022-07-17T15:15:55;38.30;24.60
22966;DHT22;11649;48.090;9.754;2022-07-17T15:18:23;37.70;27.10
22966;DHT22;11649;48.090;9.754;2022-07-17T15:20:50;37.20;27.20
22966;DHT22;11649;48.090;9.754;2022-07-17T15:23:17;36.70;25.80
22966;DHT22;11649;48.090;9.754;2022-07-17T15:25:44;37.50;26.80
22966;DHT22;11649;48.090;9.754;2022-07-17T15:28:11;37.40;26.20
22966;DHT22;11649;48.090;9.754;2022-07-17T15:30:38;36.90;24.90
22966;DHT22;11649;48.090;9.754;2022-07-17T15:33:04;36.40;27.30
22966;DHT22;11649;48.090;9.754;2022-07-17T15:35:32;36.20;26.80
22966;DHT22;11649;48.090;9.754;2022-07-17T15:37:59;36.30;27.00
22966;DHT22;11649;48.090;9.754;2022-07-17T15:40:26;36.10;27.00
22966;DHT22;11649;48.090;9.754;2022-07-17T15:42:53;35.60;26.80
22966;DHT22;11649;48.090;9.754;2022-07-17T15:45:20;35.30;28.00
22966;DHT22;11649;48.090;9.754;2022-07-17T15:47:48;34.90;26.50